createdAt,value
2019-06-20T00:02:22.202Z,2.40
2019-06-20T00:06:26.914Z,2.08
2019-06-20T00:10:30.346Z,1.75
2019-06-20T00:14:36.414Z,2.60
2019-06-20T00:18:41.078Z,2.02
2019-06-20T00:22:44.770Z,1.77
2019-06-20T00:26:48.325Z,2.10
2019-06-20T00:31:06.917Z,1.70
2019-06-20T00:35:12.600Z,1.50
2019-06-20T00:39:16.816Z,2.50
2019-06-20T00:43:20.738Z,1.77
2019-06-20T00:47:24.456Z,1.42
2019-06-20T00:51:41.573Z,1.62
2019-06-20T00:56:17.767Z,1.50
2019-06-20T01:00:22.075Z,1.65
2019-06-20T01:04:25.533Z,1.62
2019-06-20T01:08:28.989Z,1.95
2019-06-20T01:12:32.679Z,2.02
2019-06-20T01:16:36.388Z,2.08
2019-06-20T01:20:40.194Z,2.12
2019-06-20T01:24:44.594Z,2.33
2019-06-20T01:28:49.385Z,2.12
2019-06-20T01:32:53.188Z,2.42
2019-06-20T01:36:56.650Z,2.77
2019-06-20T01:41:07.262Z,2.42
2019-06-20T01:45:10.982Z,2.30
2019-06-20T01:49:14.425Z,1.80
2019-06-20T01:53:18.605Z,2.07
2019-06-20T01:57:36.144Z,2.07
2019-06-20T02:01:57.754Z,2.25
2019-06-20T02:06:02.289Z,2.60
2019-06-20T02:10:08.931Z,3.37
2019-06-20T02:14:12.462Z,2.70
2019-06-20T02:18:16.306Z,2.77
2019-06-20T02:22:20.347Z,3.08
2019-06-20T02:26:28.384Z,2.05
2019-06-20T02:30:31.904Z,2.55
2019-06-20T02:34:36.825Z,2.90
2019-06-20T02:39:03.280Z,3.00
2019-06-20T02:43:07.947Z,1.77
2019-06-20T02:47:11.678Z,2.22
2019-06-20T02:51:15.659Z,2.58
2019-06-20T02:55:19.161Z,2.35
2019-06-20T02:59:22.904Z,2.62
2019-06-20T03:03:28.076Z,2.75
2019-06-20T03:07:31.573Z,2.70
2019-06-20T03:11:35.384Z,2.72
2019-06-20T03:15:39.093Z,2.67
2019-06-20T03:19:42.868Z,2.55
2019-06-20T03:23:46.326Z,2.83
2019-06-20T03:27:50.465Z,3.33
2019-06-20T03:31:53.904Z,2.65
2019-06-20T03:35:57.351Z,3.33
2019-06-20T03:40:01.055Z,3.42
2019-06-20T03:44:04.678Z,2.77
2019-06-20T03:48:08.120Z,3.52
2019-06-20T03:52:11.549Z,3.87
2019-06-20T03:56:16.773Z,3.55
2019-06-20T04:00:22.278Z,3.40
2019-06-20T04:04:26.125Z,2.83
2019-06-20T04:08:30.009Z,3.12
2019-06-20T04:12:34.278Z,3.35
2019-06-20T04:16:37.727Z,3.35
2019-06-20T04:20:41.509Z,3.35
2019-06-20T04:24:45.131Z,2.70
2019-06-20T04:28:50.832Z,3.55
2019-06-20T04:32:54.570Z,3.10
2019-06-20T04:36:59.173Z,2.90
2019-06-20T04:41:02.750Z,2.67
2019-06-20T04:45:34.708Z,3.07
2019-06-20T04:49:30.457Z,3.17
2019-06-20T04:53:34.710Z,3.35
2019-06-20T04:57:38.703Z,2.77
2019-06-20T05:01:46.747Z,2.83
2019-06-20T05:05:52.381Z,3.02
2019-06-20T05:09:56.422Z,2.17
2019-06-20T05:14:00.933Z,2.50
2019-06-20T05:18:06.536Z,2.63
2019-06-20T05:22:10.385Z,2.00
2019-06-20T05:26:13.770Z,2.00
2019-06-20T05:30:18.189Z,2.50
2019-06-20T05:34:21.863Z,1.98
2019-06-20T05:38:25.312Z,2.22
2019-06-20T05:42:28.745Z,2.92
2019-06-20T05:46:32.181Z,2.45
2019-06-20T05:50:35.630Z,2.40
2019-06-20T05:54:39.847Z,2.20
2019-06-20T05:58:43.276Z,2.10
2019-06-20T06:02:46.698Z,2.85
2019-06-20T06:06:50.377Z,2.70
2019-06-20T06:10:54.088Z,2.10
2019-06-20T06:15:00.747Z,3.30
2019-06-20T06:19:02.716Z,3.83
2019-06-20T06:23:06.380Z,3.17
2019-06-20T06:27:10.061Z,3.85
2019-06-20T06:31:13.495Z,3.58
2019-06-20T06:35:17.514Z,4.20
2019-06-20T06:39:20.953Z,4.20
2019-06-20T06:43:24.631Z,4.78
2019-06-20T06:47:28.312Z,4.83
2019-06-20T06:51:32.028Z,4.35
2019-06-20T06:55:35.747Z,4.90
2019-06-20T06:59:39.179Z,4.87
2019-06-20T07:03:42.619Z,5.28
2019-06-20T07:07:46.080Z,4.47
2019-06-20T07:11:49.513Z,5.03
2019-06-20T07:15:53.238Z,4.92
2019-06-20T07:19:56.694Z,5.00
2019-06-20T07:24:00.127Z,4.90
2019-06-20T07:28:03.918Z,5.33
2019-06-20T07:32:07.642Z,5.42
2019-06-20T07:36:11.314Z,6.53
2019-06-20T07:40:15.496Z,5.55
2019-06-20T07:44:19.283Z,6.22
2019-06-20T07:48:22.712Z,6.10
2019-06-20T07:52:26.414Z,6.47
2019-06-20T07:56:29.873Z,6.42
2019-06-20T08:00:33.746Z,6.72
2019-06-20T08:04:37.441Z,7.10
2019-06-20T08:08:40.938Z,7.15
2019-06-20T08:12:44.375Z,6.22
2019-06-20T08:16:47.809Z,6.33
2019-06-20T08:20:51.255Z,7.05
2019-06-20T08:24:54.973Z,6.42
2019-06-20T08:29:16.262Z,5.80
2019-06-20T08:33:09.928Z,6.45
2019-06-20T08:37:09.573Z,7.17
2019-06-20T08:41:13.322Z,5.87
2019-06-20T08:45:18.494Z,6.45
2019-06-20T08:49:21.939Z,7.03
2019-06-20T08:53:25.618Z,6.72
2019-06-20T08:57:29.048Z,6.57
2019-06-20T09:01:32.490Z,6.17
2019-06-20T09:05:36.059Z,5.95
2019-06-20T09:09:39.798Z,5.78
2019-06-20T09:13:43.333Z,6.65
2019-06-20T09:17:46.755Z,6.85
2019-06-20T09:21:52.587Z,5.67
2019-06-20T09:25:55.949Z,6.42
2019-06-20T09:30:00.490Z,7.42
2019-06-20T09:34:05.392Z,6.58
2019-06-20T09:38:09.241Z,6.03
2019-06-20T09:42:12.685Z,6.92
2019-06-20T09:46:16.375Z,6.90
2019-06-20T09:50:20.601Z,5.90
2019-06-20T09:54:24.246Z,4.83
2019-06-20T09:58:28.008Z,4.75
2019-06-20T10:02:31.722Z,5.33
2019-06-20T10:06:35.420Z,5.62
2019-06-20T10:10:39.055Z,6.50
2019-06-20T10:14:43.442Z,6.03
2019-06-20T10:18:48.384Z,6.45
2019-06-20T10:22:53.046Z,5.92
2019-06-20T10:26:57.935Z,7.12
2019-06-20T10:31:01.462Z,6.47
2019-06-20T10:35:07.098Z,6.25
2019-06-20T10:39:11.949Z,6.00
2019-06-20T10:43:15.393Z,5.90
2019-06-20T10:47:31.710Z,5.25
2019-06-20T10:51:37.679Z,5.35
2019-06-20T10:55:41.965Z,4.42
2019-06-20T10:59:46.638Z,4.35
2019-06-20T11:03:50.086Z,3.55
2019-06-20T11:07:53.517Z,4.30
2019-06-20T11:11:57.221Z,4.22
2019-06-20T11:16:00.658Z,4.65
2019-06-20T11:20:06.802Z,3.62
2019-06-20T11:24:10.230Z,3.62
2019-06-20T11:28:13.669Z,3.17
2019-06-20T11:32:17.356Z,3.15
2019-06-20T11:36:20.801Z,3.35
2019-06-20T11:40:24.306Z,5.50
2019-06-20T11:44:27.876Z,3.70
2019-06-20T11:48:31.340Z,3.55
2019-06-20T11:52:40.030Z,3.83
2019-06-20T11:56:40.181Z,3.33
2019-06-20T12:00:43.615Z,2.90
2019-06-20T12:04:47.330Z,2.65
2019-06-20T12:08:50.768Z,2.30
2019-06-20T12:12:54.209Z,2.30
2019-06-20T12:16:57.640Z,2.80
2019-06-20T12:21:01.062Z,3.67
2019-06-20T12:25:06.250Z,3.98
2019-06-20T12:29:09.943Z,3.52
2019-06-20T12:33:13.458Z,3.53
2019-06-20T12:37:17.124Z,3.57
2019-06-20T12:41:20.562Z,2.58
2019-06-20T12:45:24.061Z,3.12
2019-06-20T12:49:27.770Z,3.22
2019-06-20T12:53:31.246Z,2.83
2019-06-20T12:57:34.721Z,3.85
2019-06-20T13:01:42.578Z,2.60
2019-06-20T13:05:44.846Z,2.92
2019-06-20T13:09:49.057Z,2.40
2019-06-20T13:13:52.516Z,2.50
2019-06-20T13:17:55.944Z,2.62
2019-06-20T13:21:59.370Z,3.00
2019-06-20T13:26:02.821Z,3.17
2019-06-20T13:30:08.242Z,3.75
2019-06-20T13:34:11.995Z,2.70
2019-06-20T13:38:15.711Z,2.87
2019-06-20T13:42:19.402Z,3.25
2019-06-20T13:46:22.899Z,2.67
2019-06-20T13:50:26.512Z,3.50
2019-06-20T13:54:30.230Z,3.50
2019-06-20T13:58:33.627Z,3.00
2019-06-20T14:02:37.054Z,3.30
2019-06-20T14:06:42.069Z,2.62
2019-06-20T14:10:46.052Z,2.70
2019-06-20T14:14:52.142Z,2.40
2019-06-20T14:18:55.655Z,2.05
2019-06-20T14:22:59.103Z,2.10
2019-06-20T14:27:02.678Z,2.35
2019-06-20T14:31:06.104Z,2.55
2019-06-20T14:35:09.786Z,2.47
2019-06-20T14:39:13.211Z,3.90
2019-06-20T14:43:16.888Z,3.08
2019-06-20T14:47:20.340Z,3.05
2019-06-20T14:51:23.777Z,2.20
2019-06-20T14:55:27.452Z,2.85
2019-06-20T14:59:30.895Z,2.53
2019-06-20T15:03:34.572Z,2.50
2019-06-20T15:07:38.006Z,2.40
2019-06-20T15:11:41.693Z,2.10
2019-06-20T15:15:46.511Z,1.87
2019-06-20T15:19:51.421Z,1.75
2019-06-20T15:23:56.589Z,2.42
2019-06-20T15:28:00.089Z,1.82
2019-06-20T15:32:03.551Z,2.67
2019-06-20T15:36:06.977Z,2.62
2019-06-20T15:40:10.804Z,2.17
2019-06-20T15:44:14.495Z,1.95
2019-06-20T15:48:17.946Z,2.50
2019-06-20T15:52:21.631Z,2.52
2019-06-20T15:56:25.408Z,2.02
2019-06-20T16:00:29.094Z,2.50
2019-06-20T16:04:32.783Z,2.40
2019-06-20T16:08:36.224Z,2.35
2019-06-20T16:12:39.918Z,2.10
2019-06-20T16:16:43.353Z,2.12
2019-06-20T16:20:46.774Z,2.05
2019-06-20T16:24:50.201Z,3.17
2019-06-20T16:28:53.891Z,2.98
2019-06-20T16:32:57.326Z,3.05
2019-06-20T16:37:09.596Z,3.85
2019-06-20T16:41:06.147Z,2.60
2019-06-20T16:45:11.528Z,3.50
2019-06-20T16:49:15.248Z,3.50
2019-06-20T16:53:18.751Z,3.22
2019-06-20T16:57:22.448Z,4.08
2019-06-20T17:01:25.864Z,3.35
2019-06-20T17:05:29.304Z,3.75
2019-06-20T17:09:32.783Z,3.27
2019-06-20T17:13:36.175Z,3.37
2019-06-20T17:17:39.634Z,4.00
2019-06-20T17:21:43.128Z,5.45
2019-06-20T17:25:46.551Z,3.12
2019-06-20T17:29:49.991Z,4.45
2019-06-20T17:33:57.570Z,4.62
2019-06-20T17:37:58.629Z,4.72
2019-06-20T17:42:02.113Z,4.47
2019-06-20T17:46:05.876Z,4.75
2019-06-20T17:50:12.731Z,4.60
2019-06-20T17:54:16.253Z,4.03
2019-06-20T17:58:19.706Z,4.60
2019-06-20T18:02:24.276Z,4.03
2019-06-20T18:06:33.214Z,3.77
2019-06-20T18:10:38.646Z,4.12
2019-06-20T18:14:42.092Z,3.87
2019-06-20T18:24:18.887Z,5.08
2019-06-20T18:28:22.866Z,3.50
2019-06-20T18:32:26.646Z,4.22
2019-06-20T18:36:30.755Z,3.92
2019-06-20T18:40:34.655Z,4.03
2019-06-20T18:44:42.834Z,3.62
2019-06-20T18:48:46.257Z,3.83
2019-06-20T18:52:52.408Z,3.60
2019-06-20T18:56:55.655Z,4.13
2019-06-20T19:00:59.351Z,3.80
2019-06-20T19:05:03.222Z,3.70
2019-06-20T19:09:09.106Z,4.17
2019-06-20T19:13:13.156Z,4.35
2019-06-20T19:17:16.913Z,4.17
2019-06-20T19:21:20.342Z,4.45
2019-06-20T19:25:24.301Z,3.90
2019-06-20T19:29:27.731Z,3.92
2019-06-20T19:33:31.414Z,4.37
2019-06-20T19:37:34.844Z,4.25
2019-06-20T19:41:38.535Z,3.87
2019-06-20T19:45:42.239Z,3.85
2019-06-20T19:49:45.672Z,3.77
2019-06-20T19:53:49.410Z,3.12
2019-06-20T19:57:53.277Z,3.87
2019-06-20T20:01:57.024Z,3.90
2019-06-20T20:06:00.799Z,3.50
2019-06-20T20:10:07.722Z,4.20
2019-06-20T20:14:11.157Z,4.75
2019-06-20T20:18:15.342Z,5.00
2019-06-20T20:22:18.800Z,4.17
2019-06-20T20:26:22.228Z,4.22
2019-06-20T20:30:25.846Z,4.55
2019-06-20T20:34:45.001Z,5.30
2019-06-20T20:38:48.679Z,3.58
2019-06-20T20:42:52.386Z,4.55
2019-06-20T20:46:55.868Z,4.17
2019-06-20T20:56:03.388Z,4.17
2019-06-20T21:00:11.518Z,4.22
2019-06-20T21:04:14.934Z,4.10
2019-06-20T21:08:18.671Z,4.25
2019-06-20T21:12:22.370Z,4.53
2019-06-20T21:16:26.016Z,4.10
2019-06-20T21:20:29.445Z,4.60
2019-06-20T21:24:34.677Z,5.25
2019-06-20T21:28:38.189Z,4.10
2019-06-20T21:32:43.163Z,5.05
2019-06-20T21:36:50.679Z,5.08
2019-06-20T21:40:54.132Z,5.50
2019-06-20T21:45:01.124Z,4.60
2019-06-20T21:49:06.568Z,6.28
2019-06-20T21:53:10.466Z,4.72
2019-06-20T21:57:13.948Z,4.55
2019-06-20T22:01:19.533Z,4.85
2019-06-20T22:05:23.289Z,5.08
2019-06-20T22:09:26.712Z,2.77
2019-06-20T22:13:30.176Z,2.65
2019-06-20T22:17:34.006Z,2.62
2019-06-20T22:21:37.459Z,3.02
2019-06-20T22:25:40.895Z,2.75
2019-06-20T22:29:44.440Z,3.42
2019-06-20T22:33:48.129Z,2.50
2019-06-20T22:37:51.563Z,3.62
2019-06-20T22:41:55.326Z,2.90
2019-06-20T22:46:00.039Z,3.02
2019-06-20T22:50:05.409Z,3.22
2019-06-20T22:59:32.212Z,3.55
2019-06-20T23:03:35.889Z,3.70
2019-06-20T23:07:39.605Z,2.95
2019-06-20T23:11:43.074Z,3.65
2019-06-20T23:15:46.490Z,3.12
2019-06-20T23:19:50.356Z,3.33
2019-06-20T23:23:54.052Z,3.25
2019-06-20T23:27:57.739Z,3.58
2019-06-20T23:32:01.602Z,3.45
2019-06-20T23:36:05.063Z,3.47
2019-06-20T23:40:10.125Z,4.37
2019-06-20T23:44:13.572Z,4.30
2019-06-20T23:48:17.028Z,5.12
2019-06-20T23:52:25.195Z,5.40
2019-06-20T23:56:28.638Z,4.35
